MAS1001 KSEZ-KSEZ

Flight info

Callsign MAS1001
Flight time 0h 9m
Altitude 3000
Route CIRCUITS AND LANDING //
Aircraft B38M/M-VGDW/C

Departure

Time 2026-05-08 15:17
Airport Sedona Airport (KSEZ)

Arrival

Time 2026-05-08 15:26
Airport Sedona Airport (KSEZ)
Time Latitude Longitude Altitude Speed Heading
2026-05-08 15:12 34.85165 -111.78461 4823 ft 0 kts 225°
2026-05-08 15:16 34.85139 -111.78494 4826 ft 13 kts 225°
2026-05-08 15:16 34.84833 -111.78875 4789 ft 119 kts 226°
2026-05-08 15:17 34.84058 -111.79857 5009 ft 189 kts 226°
2026-05-08 15:17 34.83064 -111.81086 6054 ft 216 kts 226°
2026-05-08 15:17 34.81951 -111.82439 7258 ft 234 kts 226°
2026-05-08 15:17 34.80824 -111.83804 8304 ft 218 kts 230°
2026-05-08 15:18 34.80204 -111.85409 8765 ft 208 kts 268°
2026-05-08 15:18 34.80587 -111.87025 8909 ft 200 kts 310°
2026-05-08 15:18 34.81757 -111.87825 8915 ft 197 kts 354°
2026-05-08 15:18 34.83045 -111.87384 8868 ft 202 kts 36°
2026-05-08 15:19 34.84059 -111.86135 8860 ft 206 kts 45°
2026-05-08 15:19 34.84999 -111.84842 8831 ft 207 kts 46°
2026-05-08 15:19 34.85954 -111.83525 8586 ft 208 kts 46°
2026-05-08 15:19 34.86929 -111.82196 8232 ft 211 kts 46°
2026-05-08 15:20 34.87909 -111.80865 7886 ft 210 kts 46°
2026-05-08 15:20 34.88797 -111.79448 7480 ft 214 kts 65°
2026-05-08 15:20 34.88840 -111.77664 7180 ft 212 kts 111°
2026-05-08 15:20 34.87903 -111.76439 7141 ft 193 kts 158°
2026-05-08 15:21 34.86649 -111.76440 7112 ft 182 kts 208°
2026-05-08 15:21 34.85683 -111.77403 7236 ft 182 kts 226°
2026-05-08 15:21 34.84768 -111.78483 7243 ft 183 kts 226°
2026-05-08 15:21 34.83852 -111.79554 7179 ft 183 kts 225°
2026-05-08 15:22 34.82934 -111.80626 7167 ft 183 kts 226°
2026-05-08 15:22 34.82033 -111.81683 7163 ft 182 kts 226°
2026-05-08 15:22 34.81119 -111.82759 7105 ft 182 kts 225°
2026-05-08 15:22 34.80284 -111.83910 6916 ft 181 kts 244°
2026-05-08 15:23 34.80223 -111.85374 6632 ft 176 kts 295°
2026-05-08 15:23 34.81106 -111.86317 6361 ft 173 kts 346°
2026-05-08 15:23 34.82252 -111.86039 6137 ft 176 kts 37°
2026-05-08 15:23 34.83130 -111.84980 6054 ft 180 kts 46°
2026-05-08 15:24 34.83988 -111.83865 5964 ft 180 kts 46°
2026-05-08 15:24 34.84837 -111.82773 5942 ft 180 kts 46°
2026-05-08 15:24 34.85696 -111.81667 5970 ft 180 kts 46°
2026-05-08 15:24 34.86554 -111.80564 5971 ft 177 kts 46°
2026-05-08 15:25 34.87349 -111.79540 5959 ft 159 kts 46°
2026-05-08 15:25 34.88094 -111.78580 5942 ft 153 kts 46°
2026-05-08 15:25 34.88824 -111.77639 5961 ft 152 kts 46°
2026-05-08 15:25 34.89386 -111.76566 5882 ft 152 kts 80°
2026-05-08 15:26 34.89131 -111.75373 5850 ft 150 kts 132°
2026-05-08 15:26 34.89102 -111.74915 5810 ft 1876 kts 158°
2026-05-08 15:26 34.89618 -111.74836 5478 ft 0 kts 38°
2026-05-08 15:26 34.89407 -111.74976 6171 ft 155 kts 206°
2026-05-08 15:27 34.88462 -111.75448 5969 ft 152 kts 200°
2026-05-08 15:27 34.87466 -111.75860 5569 ft 153 kts 200°
2026-05-08 15:27 34.86550 -111.76486 5309 ft 151 kts 225°
2026-05-08 15:27 34.85865 -111.77457 5063 ft 152 kts 234°
2026-05-08 15:28 34.85180 -111.78425 4834 ft 149 kts 223°
2026-05-08 15:28 34.84507 -111.79279 4769 ft 131 kts 226°
2026-05-08 15:28 34.84307 -111.79536 4732 ft 0 kts 249°
2026-05-08 15:28 34.85357 -111.78312 4838 ft 0 kts 131°
2026-05-08 15:29 34.85165 -111.78461 4823 ft 0 kts 225°
2026-05-08 15:30 34.85103 -111.78538 4823 ft 46 kts 225°
2026-05-08 15:30 34.84700 -111.79041 4777 ft 119 kts 226°
2026-05-08 15:31 34.85357 -111.78312 4838 ft 0 kts 131°
2026-05-08 15:31 34.85163 -111.78464 4835 ft 1 kts 225°
2026-05-08 15:31 34.85357 -111.78312 4838 ft 0 kts 131°
2026-05-08 15:31 34.85355 -111.78309 4838 ft 1 kts 131°
2026-05-08 15:32 34.85166 -111.78459 4823 ft 1 kts 226°
2026-05-08 15:32 34.85164 -111.78462 4823 ft 0 kts 226°
2026-05-08 15:35 34.85130 -111.78505 4828 ft 39 kts 226°
2026-05-08 15:36 34.84675 -111.79071 4778 ft 144 kts 226°
2026-05-08 15:36 34.83853 -111.80104 5159 ft 175 kts 226°
2026-05-08 15:36 34.83013 -111.81173 5719 ft 175 kts 227°
2026-05-08 15:36 34.82430 -111.82463 5924 ft 176 kts 259°
2026-05-08 15:37 34.82557 -111.83903 5788 ft 174 kts 294°
2026-05-08 15:37 34.83367 -111.84950 6107 ft 175 kts 333°
2026-05-08 15:37 34.84566 -111.85170 6187 ft 179 kts 10°
2026-05-08 15:37 34.85619 -111.84426 6086 ft 178 kts 47°
2026-05-08 15:38 34.86434 -111.83276 6138 ft 179 kts 49°
2026-05-08 15:38 34.87240 -111.82123 6326 ft 178 kts 49°
2026-05-08 15:38 34.88048 -111.80955 6570 ft 181 kts 50°
2026-05-08 15:38 34.88858 -111.79776 6469 ft 181 kts 49°
2026-05-08 15:39 34.89618 -111.78660 6498 ft 164 kts 53°
2026-05-08 15:39 34.89912 -111.77360 6182 ft 162 kts 97°
2026-05-08 15:39 34.89404 -111.76189 5817 ft 155 kts 141°
2026-05-08 15:39 34.88427 -111.75797 5603 ft 150 kts 184°
2026-05-08 15:40 34.87392 -111.76005 5401 ft 151 kts 198°
2026-05-08 15:40 34.86518 -111.76644 5198 ft 149 kts 226°
2026-05-08 15:40 34.85838 -111.77630 4977 ft 150 kts 231°
2026-05-08 15:40 34.85119 -111.78515 4829 ft 149 kts 223°
2026-05-08 15:41 34.84522 -111.79257 4764 ft 56 kts 225°
2026-05-08 15:41 34.84476 -111.79314 4760 ft 3 kts 225°
2026-05-08 15:41 34.84488 -111.79300 4759 ft 9 kts 225°
2026-05-08 15:41 34.84605 -111.79159 4772 ft 39 kts 224°
2026-05-08 15:42 34.84869 -111.78822 4792 ft 71 kts 226°
2026-05-08 15:42 34.85251 -111.78348 4842 ft 68 kts 225°
2026-05-08 15:42 34.85326 -111.78254 4846 ft 0 kts 226°
2026-05-08 15:46 34.85189 -111.78428 4830 ft 79 kts 226°
2026-05-08 15:46 34.84569 -111.79197 4805 ft 167 kts 225°
2026-05-08 15:46 34.83695 -111.80268 5514 ft 186 kts 225°
2026-05-08 15:47 34.82719 -111.81427 6153 ft 209 kts 224°
2026-05-08 15:47 34.81584 -111.82748 6436 ft 247 kts 224°
2026-05-08 15:47 34.80484 -111.84543 7163 ft 283 kts 244°
2026-05-08 15:47 34.80028 -111.86867 7756 ft 282 kts 272°
2026-05-08 15:48 34.82230 -111.90386 7650 ft 280 kts 344°
2026-05-08 15:48 34.84152 -111.90337 8012 ft 279 kts 20°
2026-05-08 15:48 34.85868 -111.89158 8821 ft 287 kts 32°
2026-05-08 15:49 34.87468 -111.87695 9054 ft 287 kts 50°
2026-05-08 15:49 34.88448 -111.85557 9115 ft 292 kts 66°
2026-05-08 15:49 34.89265 -111.83287 8656 ft 296 kts 66°
2026-05-08 15:49 34.90054 -111.80961 8178 ft 296 kts 68°
2026-05-08 15:50 34.90772 -111.78670 7927 ft 288 kts 70°
2026-05-08 15:50 34.91404 -111.76400 8087 ft 263 kts 72°
2026-05-08 15:50 34.91961 -111.74424 8229 ft 244 kts 69°
2026-05-08 15:50 34.92634 -111.72511 7921 ft 243 kts 65°
2026-05-08 15:51 34.93093 -111.70655 8161 ft 214 kts 97°
2026-05-08 15:51 34.92621 -111.69018 7950 ft 206 kts 130°
2026-05-08 15:51 34.91392 -111.68313 7700 ft 195 kts 185°
2026-05-08 15:51 34.90269 -111.69055 7470 ft 186 kts 239°
2026-05-08 15:52 34.90053 -111.70507 7320 ft 178 kts 272°
2026-05-08 15:52 34.89932 -111.71980 7884 ft 172 kts 259°
2026-05-08 15:52 34.89583 -111.73392 7727 ft 169 kts 247°
2026-05-08 15:52 34.88936 -111.74540 7229 ft 161 kts 224°
2026-05-08 15:53 34.88160 -111.75248 6945 ft 148 kts 215°
2026-05-08 15:53 34.87270 -111.75985 6135 ft 164 kts 214°
2026-05-08 15:53 34.86387 -111.76873 5490 ft 162 kts 228°
2026-05-08 15:53 34.85641 -111.77863 5021 ft 151 kts 225°
2026-05-08 15:54 34.84944 -111.78735 4803 ft 133 kts 226°
2026-05-08 15:54 34.84516 -111.79267 4762 ft 33 kts 225°
2026-05-08 15:54 34.84491 -111.79298 4761 ft 0 kts 225°
2026-05-08 15:55 34.84489 -111.79303 4764 ft 0 kts 257°
2026-05-08 15:55 34.84493 -111.79306 4764 ft 1 kts 309°
2026-05-08 15:55 34.84505 -111.79322 4761 ft 0 kts 322°
2026-05-08 15:56 34.84503 -111.79318 4766 ft 2 kts 349°
2026-05-08 15:56 34.84516 -111.79317 4764 ft 3 kts
2026-05-08 15:56 34.84539 -111.79315 4768 ft 4 kts
2026-05-08 15:56 34.84570 -111.79306 4763 ft 5 kts 22°
2026-05-08 15:57 34.84591 -111.79291 4765 ft 3 kts 36°
2026-05-08 15:57 34.84612 -111.79267 4770 ft 9 kts 44°
2026-05-08 15:57 34.84686 -111.79177 4774 ft 21 kts 46°
2026-05-08 15:57 34.84817 -111.79014 4784 ft 31 kts 45°
2026-05-08 15:58 34.84896 -111.78917 4791 ft 2 kts 27°
2026-05-08 15:58 34.84906 -111.78913 4792 ft 1 kts 12°
2026-05-08 15:58 34.84911 -111.78913 4792 ft 1 kts 356°
2026-05-08 15:58 34.84941 -111.78929 4794 ft 7 kts 327°
2026-05-08 15:59 34.84959 -111.78948 4796 ft 0 kts 318°